createdAt,value
2023-08-10T00:01:47.845Z,3.17
2023-08-10T00:04:14.987Z,3.07
2023-08-10T00:06:42.205Z,2.80
2023-08-10T00:09:09.433Z,3.73
2023-08-10T00:11:37.851Z,3.37
2023-08-10T00:14:05.141Z,3.23
2023-08-10T00:16:32.299Z,3.00
2023-08-10T00:18:59.492Z,3.60
2023-08-10T00:21:26.821Z,3.10
2023-08-10T00:23:53.950Z,3.20
2023-08-10T00:26:21.126Z,3.60
2023-08-10T00:28:49.636Z,3.43
2023-08-10T00:31:16.847Z,3.30
2023-08-10T00:33:43.988Z,3.40
2023-08-10T00:36:11.187Z,3.20
2023-08-10T00:38:39.011Z,2.87
2023-08-10T00:41:06.270Z,2.83
2023-08-10T00:43:33.650Z,3.87
2023-08-10T00:46:02.623Z,3.23
2023-08-10T00:48:29.911Z,3.40
2023-08-10T00:50:57.096Z,2.97
2023-08-10T00:53:24.590Z,3.63
2023-08-10T00:55:52.688Z,3.40
2023-08-10T00:58:20.262Z,3.03
2023-08-10T01:00:47.488Z,3.80
2023-08-10T01:03:16.243Z,3.23
2023-08-10T01:05:47.603Z,3.80
2023-08-10T01:08:20.436Z,3.00
2023-08-10T01:10:53.703Z,3.13
2023-08-10T01:13:23.697Z,3.53
2023-08-10T01:15:53.567Z,2.80
2023-08-10T01:18:26.694Z,3.50
2023-08-10T01:20:54.931Z,3.20
2023-08-10T01:23:24.476Z,3.47
2023-08-10T01:25:53.865Z,3.80
2023-08-10T01:28:21.029Z,3.37
2023-08-10T01:30:48.188Z,2.97
2023-08-10T01:33:15.300Z,3.50
2023-08-10T01:35:42.404Z,2.97
2023-08-10T01:38:09.543Z,3.50
2023-08-10T01:40:36.702Z,3.47
2023-08-10T01:43:05.413Z,3.13
2023-08-10T01:45:32.745Z,3.50
2023-08-10T01:48:04.036Z,3.67
2023-08-10T01:50:33.802Z,3.07
2023-08-10T01:53:03.795Z,4.07
2023-08-10T01:55:31.212Z,3.00
2023-08-10T01:57:58.359Z,3.43
2023-08-10T02:00:26.819Z,3.23
2023-08-10T02:02:54.005Z,3.63
2023-08-10T02:05:21.199Z,3.60
2023-08-10T02:07:48.293Z,3.50
2023-08-10T02:10:15.481Z,3.73
2023-08-10T02:12:42.777Z,3.00
2023-08-10T02:15:10.190Z,4.00
2023-08-10T02:17:38.708Z,3.40
2023-08-10T02:20:06.328Z,3.77
2023-08-10T02:22:33.520Z,3.20
2023-08-10T02:25:00.768Z,3.73
2023-08-10T02:27:27.837Z,3.63
2023-08-10T02:29:54.890Z,4.43
2023-08-10T02:32:22.900Z,3.70
2023-08-10T02:34:52.299Z,3.37
2023-08-10T02:37:19.426Z,3.50
2023-08-10T02:39:46.744Z,3.87
2023-08-10T02:42:13.876Z,3.60
2023-08-10T02:44:40.978Z,4.00
2023-08-10T02:47:08.557Z,3.47
2023-08-10T02:49:35.748Z,3.47
2023-08-10T02:52:04.659Z,3.77
2023-08-10T02:54:31.915Z,4.03
2023-08-10T02:56:59.070Z,3.83
2023-08-10T02:59:26.308Z,3.83
2023-08-10T03:01:53.450Z,3.63
2023-08-10T03:04:20.671Z,4.23
2023-08-10T03:06:47.837Z,3.30
2023-08-10T03:09:16.294Z,3.50
2023-08-10T03:11:43.500Z,3.50
2023-08-10T03:14:10.660Z,4.10
2023-08-10T03:16:37.869Z,4.77
2023-08-10T03:19:05.253Z,4.23
2023-08-10T03:21:32.780Z,3.90
2023-08-10T03:23:59.898Z,4.53
2023-08-10T03:26:28.556Z,4.00
2023-08-10T03:28:57.025Z,4.23
2023-08-10T03:31:24.235Z,4.30
2023-08-10T03:33:52.895Z,4.63
2023-08-10T03:36:20.400Z,4.10
2023-08-10T03:38:48.635Z,4.97
2023-08-10T03:41:15.835Z,4.57
2023-08-10T03:43:44.436Z,3.70
2023-08-10T03:46:11.609Z,5.10
2023-08-10T03:48:38.817Z,3.50
2023-08-10T03:51:05.974Z,4.27
2023-08-10T03:53:33.116Z,4.70
2023-08-10T03:56:00.271Z,4.40
2023-08-10T03:58:27.560Z,5.03
2023-08-10T04:00:56.133Z,4.70
2023-08-10T04:03:23.753Z,4.60
2023-08-10T04:05:50.919Z,5.13
2023-08-10T04:08:18.026Z,4.67
2023-08-10T04:10:45.193Z,4.33
2023-08-10T04:13:12.292Z,4.70
2023-08-10T04:15:39.375Z,4.27
2023-08-10T04:18:07.990Z,4.40
2023-08-10T04:20:35.168Z,5.30
2023-08-10T04:23:02.295Z,3.60
2023-08-10T04:25:29.520Z,4.10
2023-08-10T04:27:56.658Z,3.93
2023-08-10T04:30:23.792Z,4.40
2023-08-10T04:32:50.976Z,4.10
2023-08-10T04:35:19.493Z,3.97
2023-08-10T04:37:46.589Z,4.03
2023-08-10T04:40:15.989Z,4.33
2023-08-10T04:42:44.645Z,4.90
2023-08-10T04:45:11.729Z,3.50
2023-08-10T04:47:38.949Z,4.47
2023-08-10T04:50:06.480Z,4.93
2023-08-10T04:52:35.045Z,5.40
2023-08-10T04:55:02.283Z,4.20
2023-08-10T04:57:29.477Z,4.10
2023-08-10T04:59:56.616Z,4.33
2023-08-10T05:02:26.265Z,4.30
2023-08-10T05:04:53.759Z,4.87
2023-08-10T05:07:20.904Z,3.60
2023-08-10T05:12:19.577Z,4.03
2023-08-10T05:14:46.715Z,4.53
2023-08-10T05:17:13.851Z,5.13
2023-08-10T05:19:40.979Z,4.50
2023-08-10T05:22:08.181Z,4.57
2023-08-10T05:24:35.341Z,4.67
2023-08-10T05:27:03.906Z,4.40
2023-08-10T05:29:31.067Z,4.07
2023-08-10T05:31:58.208Z,4.17
2023-08-10T05:34:25.394Z,3.70
2023-08-10T05:36:52.533Z,4.73
2023-08-10T05:39:19.700Z,4.20
2023-08-10T05:41:46.834Z,4.60
2023-08-10T05:44:15.371Z,4.03
2023-08-10T05:46:42.538Z,4.33
2023-08-10T05:49:09.669Z,6.77
2023-08-10T05:51:36.788Z,6.00
2023-08-10T05:54:04.051Z,5.23
2023-08-10T05:56:31.293Z,4.60
2023-08-10T05:58:58.493Z,4.50
2023-08-10T06:01:27.067Z,5.13
2023-08-10T06:03:54.198Z,4.63
2023-08-10T06:06:21.305Z,5.03
2023-08-10T06:08:48.454Z,4.70
2023-08-10T06:11:17.772Z,5.03
2023-08-10T06:13:46.269Z,4.57
2023-08-10T06:16:13.371Z,4.60
2023-08-10T06:18:41.817Z,5.53
2023-08-10T06:21:08.959Z,5.97
2023-08-10T06:23:36.101Z,5.07
2023-08-10T06:26:03.262Z,4.50
2023-08-10T06:28:30.380Z,5.43
2023-08-10T06:30:57.538Z,5.80
2023-08-10T06:33:26.536Z,5.20
2023-08-10T06:35:55.274Z,4.80
2023-08-10T06:38:22.389Z,4.60
2023-08-10T06:40:49.534Z,3.87
2023-08-10T06:43:16.642Z,3.83
2023-08-10T06:45:50.293Z,4.70
2023-08-10T06:48:17.467Z,4.73
2023-08-10T06:50:44.966Z,4.00
2023-08-10T06:53:13.443Z,4.00
2023-08-10T06:55:40.629Z,4.80
2023-08-10T06:58:08.601Z,3.57
2023-08-10T07:00:36.306Z,4.70
2023-08-10T07:03:03.553Z,4.40
2023-08-10T07:05:30.871Z,2.80
2023-08-10T07:07:58.050Z,2.77
2023-08-10T07:10:26.496Z,3.90
2023-08-10T07:12:53.757Z,3.43
2023-08-10T07:15:21.073Z,2.93
2023-08-10T07:17:48.320Z,2.90
2023-08-10T07:20:15.492Z,3.70
2023-08-10T07:22:42.629Z,3.80
2023-08-10T07:25:09.855Z,3.63
2023-08-10T07:27:38.310Z,3.30
2023-08-10T07:30:05.927Z,3.63
2023-08-10T07:32:33.136Z,3.10
2023-08-10T07:35:00.332Z,3.93
2023-08-10T07:37:27.518Z,3.53
2023-08-10T07:39:54.614Z,2.70
2023-08-10T07:42:21.804Z,3.40
2023-08-10T07:44:50.233Z,3.77
2023-08-10T07:47:17.356Z,3.27
2023-08-10T07:49:44.854Z,2.90
2023-08-10T07:52:12.031Z,2.83
2023-08-10T07:54:39.477Z,2.70
2023-08-10T07:57:06.580Z,2.97
2023-08-10T07:59:33.766Z,3.60
2023-08-10T08:02:02.489Z,3.63
2023-08-10T08:04:29.852Z,3.93
2023-08-10T08:06:57.165Z,3.50
2023-08-10T08:09:24.332Z,3.57
2023-08-10T08:11:51.472Z,3.40
2023-08-10T08:14:18.545Z,3.40
2023-08-10T08:16:45.745Z,2.53
2023-08-10T08:19:14.197Z,2.03
2023-08-10T08:21:41.331Z,2.70
2023-08-10T08:24:08.430Z,3.27
2023-08-10T08:26:35.505Z,2.63
2023-08-10T08:29:02.554Z,2.80
2023-08-10T08:31:29.664Z,3.50
2023-08-10T08:33:56.868Z,2.13
2023-08-10T08:36:25.291Z,2.87
2023-08-10T08:38:52.437Z,2.23
2023-08-10T08:41:20.083Z,2.43
2023-08-10T08:43:47.391Z,2.10
2023-08-10T08:46:15.472Z,2.80
2023-08-10T08:48:42.794Z,3.30
2023-08-10T08:51:09.929Z,2.63
2023-08-10T08:53:38.656Z,2.93
2023-08-10T08:56:05.873Z,2.30
2023-08-10T08:58:32.986Z,3.27
2023-08-10T09:01:01.371Z,2.70
2023-08-10T09:03:29.194Z,3.47
2023-08-10T09:05:56.884Z,3.57
2023-08-10T09:08:24.780Z,2.70
2023-08-10T09:10:53.654Z,2.80
2023-08-10T09:13:21.441Z,2.33
2023-08-10T09:15:49.227Z,3.47
2023-08-10T09:18:16.448Z,3.10
2023-08-10T09:20:43.551Z,3.23
2023-08-10T09:23:10.755Z,2.23
2023-08-10T09:25:42.120Z,2.40
2023-08-10T09:28:13.273Z,3.33
2023-08-10T09:30:40.488Z,2.50
2023-08-10T09:33:07.759Z,2.30
2023-08-10T09:35:34.940Z,2.23
2023-08-10T09:38:02.771Z,2.50
2023-08-10T09:40:29.994Z,2.60
2023-08-10T09:42:57.107Z,3.27
2023-08-10T09:45:25.581Z,2.30
2023-08-10T09:47:52.770Z,2.70
2023-08-10T09:50:19.971Z,3.10
2023-08-10T09:52:47.087Z,2.90
2023-08-10T09:55:16.095Z,4.80
2023-08-10T09:57:44.273Z,7.73
2023-08-10T10:00:12.231Z,5.70
2023-08-10T10:02:40.907Z,4.70
2023-08-10T10:05:08.622Z,4.80
2023-08-10T10:07:36.953Z,4.60
2023-08-10T10:10:04.257Z,4.30
2023-08-10T10:12:33.097Z,4.63
2023-08-10T10:15:00.314Z,4.33
2023-08-10T10:17:27.517Z,4.17
2023-08-10T10:19:56.207Z,4.33
2023-08-10T10:22:23.567Z,4.13
2023-08-10T10:24:52.886Z,3.75
2023-08-10T10:27:20.002Z,3.72
2023-08-10T10:29:52.427Z,4.07
2023-08-10T10:32:20.392Z,3.65
2023-08-10T10:34:47.904Z,3.88
2023-08-10T10:37:17.624Z,4.50
2023-08-10T10:39:46.258Z,4.65
2023-08-10T10:42:13.812Z,4.40
2023-08-10T10:44:59.400Z,4.47
2023-08-10T10:47:34.676Z,3.90
2023-08-10T10:50:02.759Z,4.50
2023-08-10T10:52:37.973Z,4.18
2023-08-10T10:55:09.391Z,4.50
2023-08-10T10:57:38.044Z,4.38
2023-08-10T11:00:05.659Z,3.63
2023-08-10T11:02:35.071Z,3.58
2023-08-10T11:05:02.284Z,3.90
2023-08-10T11:07:29.428Z,3.65
2023-08-10T11:10:04.723Z,3.63
2023-08-10T11:12:31.898Z,4.85
2023-08-10T11:14:59.079Z,4.55
2023-08-10T11:17:27.312Z,4.13
2023-08-10T11:19:54.734Z,4.40
2023-08-10T11:22:21.960Z,3.78
2023-08-10T11:24:49.093Z,3.92
2023-08-10T11:27:17.610Z,4.05
2023-08-10T11:29:44.712Z,4.88
2023-08-10T11:32:12.296Z,4.80
2023-08-10T11:34:39.829Z,5.22
2023-08-10T11:37:07.259Z,4.95
2023-08-10T11:39:34.498Z,4.07
2023-08-10T11:42:01.635Z,3.40
2023-08-10T11:44:31.082Z,5.65
2023-08-10T11:46:58.662Z,5.32
2023-08-10T11:49:26.952Z,4.25
2023-08-10T11:51:54.232Z,5.10
2023-08-10T11:54:28.099Z,4.25
2023-08-10T11:56:55.284Z,4.80
2023-08-10T11:59:22.355Z,4.72
2023-08-10T12:01:54.102Z,4.82
2023-08-10T12:04:21.653Z,5.18
2023-08-10T12:06:48.851Z,4.35
2023-08-10T12:09:16.092Z,5.10
2023-08-10T12:11:49.320Z,5.65
2023-08-10T12:14:19.422Z,6.53
2023-08-10T12:16:46.581Z,5.82
2023-08-10T12:19:15.432Z,6.80
2023-08-10T12:21:42.627Z,6.65
2023-08-10T12:24:09.747Z,6.47
2023-08-10T12:26:36.904Z,5.95
2023-08-10T12:29:04.045Z,5.38
2023-08-10T12:31:31.367Z,5.63
2023-08-10T12:33:58.522Z,6.40
2023-08-10T12:36:27.090Z,6.22
2023-08-10T12:38:54.277Z,5.97
2023-08-10T12:41:21.416Z,9.70
2023-08-10T12:43:48.580Z,9.07
2023-08-10T12:46:15.766Z,8.82
2023-08-10T12:48:43.319Z,8.77
2023-08-10T12:51:10.614Z,8.88
2023-08-10T12:53:39.129Z,8.63
2023-08-10T12:56:06.302Z,9.30
2023-08-10T12:58:33.529Z,8.90
2023-08-10T13:01:00.694Z,9.18
2023-08-10T13:03:27.827Z,7.93
2023-08-10T13:05:55.004Z,8.82
2023-08-10T13:08:22.137Z,6.82
2023-08-10T13:10:50.614Z,7.00
2023-08-10T13:13:17.779Z,7.47
2023-08-10T13:15:44.927Z,7.72
2023-08-10T13:18:12.192Z,8.48
2023-08-10T13:20:39.431Z,8.30
2023-08-10T13:23:06.572Z,7.32
2023-08-10T13:25:33.695Z,8.63
2023-08-10T13:28:02.195Z,11.00
2023-08-10T13:30:29.331Z,8.30
2023-08-10T13:32:56.436Z,8.52
2023-08-10T13:35:23.584Z,9.07
2023-08-10T13:37:50.787Z,8.80
2023-08-10T13:40:17.972Z,7.45
2023-08-10T13:42:45.087Z,7.47
2023-08-10T13:45:13.557Z,7.35
2023-08-10T13:47:40.753Z,7.50
2023-08-10T13:50:08.534Z,7.28
2023-08-10T13:52:35.623Z,7.47
2023-08-10T13:55:02.706Z,7.63
2023-08-10T13:57:30.188Z,7.13
2023-08-10T13:59:57.317Z,6.53
2023-08-10T14:02:25.844Z,7.07
2023-08-10T14:04:52.967Z,7.72
2023-08-10T14:07:20.080Z,7.30
2023-08-10T14:09:47.224Z,8.60
2023-08-10T14:12:14.371Z,8.18
2023-08-10T14:14:41.464Z,7.82
2023-08-10T14:17:08.551Z,7.82
2023-08-10T14:19:37.023Z,8.23
2023-08-10T14:22:04.312Z,9.23
2023-08-10T14:24:31.681Z,8.13
2023-08-10T14:26:58.900Z,8.52
2023-08-10T14:29:26.024Z,8.85
2023-08-10T14:31:53.154Z,7.30
2023-08-10T14:34:20.310Z,8.38
2023-08-10T14:36:48.764Z,7.63
2023-08-10T14:39:16.017Z,6.70
2023-08-10T14:41:43.122Z,7.25
2023-08-10T14:44:10.218Z,8.30
2023-08-10T14:46:37.419Z,7.47
2023-08-10T14:49:05.107Z,8.38
2023-08-10T14:51:32.566Z,7.68
2023-08-10T14:54:01.002Z,6.85
2023-08-10T14:56:28.219Z,7.10
2023-08-10T14:58:55.787Z,7.53
2023-08-10T15:01:22.950Z,7.63
2023-08-10T15:03:50.100Z,6.50
2023-08-10T15:06:17.251Z,6.78
2023-08-10T15:08:44.475Z,6.55
2023-08-10T15:11:13.308Z,7.05
2023-08-10T15:13:40.569Z,7.68
2023-08-10T15:16:07.745Z,5.78
2023-08-10T15:18:34.996Z,6.95
2023-08-10T15:21:02.145Z,6.20
2023-08-10T15:25:59.337Z,5.07
2023-08-10T15:28:28.305Z,4.38
2023-08-10T15:30:55.407Z,4.97
2023-08-10T15:33:22.568Z,4.93
2023-08-10T15:35:49.664Z,5.85
2023-08-10T15:38:16.816Z,5.00
2023-08-10T15:40:44.000Z,4.80
2023-08-10T15:43:11.165Z,5.15
2023-08-10T15:45:40.034Z,4.50
2023-08-10T15:48:07.551Z,4.55
2023-08-10T15:50:34.779Z,4.40
2023-08-10T15:53:01.894Z,4.30
2023-08-10T15:55:29.021Z,4.63
2023-08-10T15:57:56.140Z,4.60
2023-08-10T16:00:23.874Z,3.45
2023-08-10T16:02:52.400Z,3.67
2023-08-10T16:05:19.647Z,4.00
2023-08-10T16:07:46.841Z,3.60
2023-08-10T16:10:14.033Z,3.92
2023-08-10T16:12:41.193Z,3.95
2023-08-10T16:15:08.840Z,3.88
2023-08-10T16:17:36.523Z,4.22
2023-08-10T16:20:05.339Z,8.35
2023-08-10T16:22:32.485Z,5.60
2023-08-10T16:24:59.647Z,5.47
2023-08-10T16:27:26.812Z,4.63
2023-08-10T16:29:53.965Z,4.07
2023-08-10T16:32:21.138Z,4.50
2023-08-10T16:34:48.319Z,4.75
2023-08-10T16:37:16.791Z,3.95
2023-08-10T16:39:43.944Z,4.47
2023-08-10T16:42:11.122Z,4.78
2023-08-10T16:44:38.372Z,4.40
2023-08-10T16:47:05.769Z,4.50
2023-08-10T16:49:32.858Z,5.07
2023-08-10T16:52:01.220Z,5.38
2023-08-10T16:54:29.769Z,5.75
2023-08-10T16:56:56.978Z,6.38
2023-08-10T16:59:24.218Z,6.00
2023-08-10T17:01:51.795Z,6.13
2023-08-10T17:04:19.951Z,6.55
2023-08-10T17:06:47.090Z,6.32
2023-08-10T17:09:14.252Z,6.60
2023-08-10T17:11:42.681Z,5.85
2023-08-10T17:14:09.817Z,6.10
2023-08-10T17:16:37.021Z,6.93
2023-08-10T17:19:04.271Z,6.20
2023-08-10T17:21:31.556Z,5.78
2023-08-10T17:23:58.707Z,5.43
2023-08-10T17:26:25.855Z,6.20
2023-08-10T17:28:57.623Z,6.82
2023-08-10T17:31:27.288Z,5.40
2023-08-10T17:33:54.449Z,5.38
2023-08-10T17:36:21.685Z,9.57
2023-08-10T17:38:48.798Z,7.72
2023-08-10T17:41:15.952Z,6.25
2023-08-10T17:43:43.130Z,5.35
2023-08-10T17:46:11.618Z,5.40
2023-08-10T17:48:40.035Z,6.45
2023-08-10T17:51:09.224Z,7.25
2023-08-10T17:53:36.359Z,5.93
2023-08-10T17:56:03.494Z,6.63
2023-08-10T17:58:30.561Z,6.25
2023-08-10T18:01:04.804Z,8.23
2023-08-10T18:03:33.328Z,13.88
2023-08-10T18:06:00.510Z,7.55
2023-08-10T18:08:27.732Z,9.25
2023-08-10T18:10:54.863Z,8.38
2023-08-10T18:13:22.033Z,8.32
2023-08-10T18:15:49.129Z,11.07
2023-08-10T18:18:16.274Z,9.13
2023-08-10T18:20:44.794Z,9.25
2023-08-10T18:23:11.936Z,10.37
2023-08-10T18:25:39.032Z,12.10
2023-08-10T18:28:06.355Z,14.50
2023-08-10T18:30:33.475Z,9.03
2023-08-10T18:33:00.738Z,7.80
2023-08-10T18:35:28.213Z,7.97
2023-08-10T18:37:56.750Z,10.30
2023-08-10T18:40:23.878Z,9.13
2023-08-10T18:42:51.014Z,7.97
2023-08-10T18:45:18.158Z,7.00
2023-08-10T18:47:45.335Z,9.63
2023-08-10T18:50:12.497Z,7.70
2023-08-10T18:52:39.690Z,8.13
2023-08-10T18:55:08.617Z,9.93
2023-08-10T18:57:35.850Z,14.33
2023-08-10T19:00:02.977Z,8.97
2023-08-10T19:02:30.176Z,7.10
2023-08-10T19:04:57.329Z,7.07
2023-08-10T19:07:24.551Z,8.30
2023-08-10T19:09:51.694Z,9.20
2023-08-10T19:12:20.212Z,9.87
2023-08-10T19:14:47.319Z,9.37
2023-08-10T19:17:14.590Z,11.60
2023-08-10T19:19:41.731Z,9.27
2023-08-10T19:22:09.023Z,8.87
2023-08-10T19:24:36.363Z,8.17
2023-08-10T19:27:03.609Z,8.23
2023-08-10T19:29:32.124Z,6.50
2023-08-10T19:31:59.239Z,8.60
2023-08-10T19:34:26.422Z,6.97
2023-08-10T19:36:53.568Z,7.07
2023-08-10T19:39:20.750Z,11.50
2023-08-10T19:41:47.860Z,12.17
2023-08-10T19:44:15.037Z,9.80
2023-08-10T19:46:43.527Z,9.53
2023-08-10T19:49:10.617Z,6.80
2023-08-10T19:51:37.756Z,7.40
2023-08-10T19:54:04.991Z,8.90
2023-08-10T19:56:32.133Z,7.33
2023-08-10T19:58:59.225Z,10.03
2023-08-10T20:01:26.410Z,7.77
2023-08-10T20:03:54.955Z,6.80
2023-08-10T20:06:22.123Z,7.10
2023-08-10T20:08:49.264Z,11.53
2023-08-10T20:11:16.410Z,8.10
2023-08-10T20:13:43.542Z,6.77
2023-08-10T20:16:10.741Z,6.37
2023-08-10T20:18:37.882Z,6.87
2023-08-10T20:21:06.399Z,6.90
2023-08-10T20:23:33.550Z,6.73
2023-08-10T20:26:00.727Z,7.20
2023-08-10T20:28:27.911Z,6.90
2023-08-10T20:30:55.054Z,7.47
2023-08-10T20:33:23.043Z,6.13
2023-08-10T20:35:50.159Z,6.43
2023-08-10T20:38:18.893Z,6.87
2023-08-10T20:40:46.304Z,6.20
2023-08-10T20:43:13.459Z,7.27
2023-08-10T20:45:43.317Z,6.90
2023-08-10T20:48:10.468Z,7.60
2023-08-10T20:50:38.112Z,7.10
2023-08-10T20:53:05.429Z,6.47
2023-08-10T20:55:33.930Z,6.77
2023-08-10T20:58:01.203Z,6.77
2023-08-10T21:00:28.327Z,6.70
2023-08-10T21:02:55.628Z,7.27
2023-08-10T21:05:22.992Z,6.60
2023-08-10T21:07:50.206Z,6.50
2023-08-10T21:10:17.317Z,6.17
2023-08-10T21:12:46.906Z,6.70
2023-08-10T21:15:13.998Z,5.93
2023-08-10T21:17:41.226Z,6.60
2023-08-10T21:20:09.194Z,7.60
2023-08-10T21:22:36.359Z,7.00
2023-08-10T21:25:03.552Z,6.37
2023-08-10T21:27:30.695Z,6.60
2023-08-10T21:29:59.215Z,6.93
2023-08-10T21:32:26.400Z,7.00
2023-08-10T21:34:53.552Z,7.37
2023-08-10T21:37:20.774Z,6.97
2023-08-10T21:39:48.001Z,6.33
2023-08-10T21:42:15.169Z,7.67
2023-08-10T21:44:42.354Z,6.70
2023-08-10T21:47:10.955Z,6.33
2023-08-10T21:49:38.334Z,5.90
2023-08-10T21:52:05.662Z,6.80
2023-08-10T21:54:32.814Z,6.70
2023-08-10T21:57:03.225Z,6.57
2023-08-10T21:59:31.938Z,6.00
2023-08-10T22:01:59.182Z,6.93
2023-08-10T22:04:27.672Z,6.60
2023-08-10T22:06:54.821Z,6.77
2023-08-10T22:09:22.007Z,6.20
2023-08-10T22:11:49.171Z,7.13
2023-08-10T22:14:16.332Z,7.03
2023-08-10T22:16:43.805Z,6.83
2023-08-10T22:19:11.484Z,7.70
2023-08-10T22:21:39.993Z,7.03
2023-08-10T22:24:07.444Z,6.57
2023-08-10T22:26:34.562Z,7.07
2023-08-10T22:29:01.688Z,7.30
2023-08-10T22:31:28.818Z,6.90
2023-08-10T22:33:56.091Z,6.87
2023-08-10T22:36:23.244Z,6.27
2023-08-10T22:38:51.694Z,7.20
2023-08-10T22:41:18.837Z,7.10
2023-08-10T22:43:45.992Z,6.33
2023-08-10T22:46:13.186Z,6.73
2023-08-10T22:48:40.453Z,7.53
2023-08-10T22:51:07.569Z,7.40
2023-08-10T22:53:34.714Z,6.50
2023-08-10T22:56:03.227Z,6.77
2023-08-10T22:58:30.402Z,6.03
2023-08-10T23:00:59.108Z,7.70
2023-08-10T23:03:26.223Z,7.00
2023-08-10T23:05:53.356Z,7.20
2023-08-10T23:08:20.528Z,7.20
2023-08-10T23:10:47.669Z,6.57
2023-08-10T23:13:16.338Z,7.03
2023-08-10T23:15:43.657Z,7.87
2023-08-10T23:18:10.818Z,7.13
2023-08-10T23:20:38.016Z,7.17
2023-08-10T23:23:05.532Z,6.70
2023-08-10T23:25:32.769Z,7.87
2023-08-10T23:27:59.952Z,7.00
2023-08-10T23:30:28.469Z,7.77
2023-08-10T23:32:55.740Z,6.90
2023-08-10T23:35:23.034Z,6.97
2023-08-10T23:37:50.276Z,6.63
2023-08-10T23:40:17.448Z,7.10
2023-08-10T23:42:44.621Z,7.00
2023-08-10T23:45:12.435Z,7.70
2023-08-10T23:47:41.113Z,7.03
2023-08-10T23:50:08.827Z,7.53
2023-08-10T23:52:36.134Z,7.30
2023-08-10T23:55:03.307Z,7.43
2023-08-10T23:57:30.428Z,7.10
2023-08-10T23:59:57.594Z,7.20
